Time;durP1;ratioP1;P1;durP2;ratioP2;P2;SDS_P1;SDS_P2;PMS_P1;PMS_P2;Temp;Humidity;BMP_temperature;BMP_pressure;BME280_temperature;BME280_humidity;BME280_pressure;Samples;Min_cycle;Max_cycle;Signal;HPM_P1;HPM_P2
2022/09/18 00:00:02;;;;;;;4.67;2.00;;;19.40;99.90;;;19.55;65.10;93752.03;6175545;23;20441;-56
2022/09/18 00:02:30;;;;;;;5.57;2.30;;;19.30;99.90;;;19.42;65.14;93771.66;6175733;23;20493;-58
2022/09/18 00:04:58;;;;;;;3.10;1.83;;;19.20;99.90;;;19.29;65.43;93777.97;6176675;23;20414;-57
2022/09/18 00:07:25;;;;;;;1.67;1.57;;;19.10;99.90;;;19.13;65.73;93797.97;6175840;23;20938;-54
2022/09/18 00:09:52;;;;;;;3.47;1.40;;;18.90;99.90;;;18.96;65.67;93779.91;6175844;23;21028;-56
2022/09/18 00:12:21;;;;;;;7.43;1.33;;;18.80;99.90;;;18.76;65.97;93798.69;6175750;23;20445;-55
2022/09/18 00:14:48;;;;;;;2.90;0.83;;;18.60;99.90;;;18.56;64.92;93798.00;6175744;23;20918;-55
2022/09/18 00:17:16;;;;;;;1.97;0.70;;;18.40;99.90;;;18.34;64.98;93824.16;6176484;23;20929;-55
2022/09/18 00:19:43;;;;;;;0.90;0.60;;;18.10;99.90;;;18.17;65.18;93803.38;6177615;23;20429;-57
2022/09/18 00:22:10;;;;;;;3.10;0.90;;;18.00;99.90;;;18.02;65.35;93818.81;6178276;23;20406;-57
2022/09/18 00:24:37;;;;;;;3.53;0.93;;;17.80;99.90;;;17.87;66.06;93837.66;6177818;23;20848;-56
2022/09/18 00:27:05;;;;;;;2.00;0.50;;;17.70;99.90;;;17.69;65.88;93831.16;6177748;23;20487;-57
2022/09/18 00:29:34;;;;;;;4.70;0.83;;;17.50;99.90;;;17.50;65.02;93824.84;6177170;23;20984;-55
2022/09/18 00:32:02;;;;;;;0.70;0.50;;;17.40;99.90;;;17.34;64.69;93825.31;6177324;23;21049;-55
2022/09/18 00:34:29;;;;;;;4.00;0.90;;;17.20;99.90;;;17.16;64.49;93826.75;6176920;23;20433;-55
2022/09/18 00:36:56;;;;;;;2.00;0.60;;;17.00;99.90;;;16.99;64.41;93834.34;6177563;23;20409;-57
2022/09/18 00:39:24;;;;;;;0.90;0.60;;;16.90;99.90;;;16.87;64.59;93833.34;6177464;23;20496;-56
2022/09/18 00:41:51;;;;;;;1.10;0.50;;;16.70;99.90;;;16.71;63.97;93831.03;6177564;23;20402;-54
2022/09/18 00:44:40;;;;;;;1.97;0.60;;;16.60;99.80;;;16.60;64.49;93851.03;6177622;23;21088;-56
2022/09/18 00:47:27;;;;;;;2.17;0.83;;;16.40;99.90;;;16.45;64.65;93865.31;6176917;23;20465;-57
2022/09/18 00:50:07;;;;;;;1.73;0.63;;;16.30;99.90;;;16.36;64.77;93866.50;6177524;23;20825;-56
2022/09/18 00:52:42;;;;;;;1.07;0.50;;;16.30;99.90;;;16.29;64.51;93881.59;6177383;23;20433;-55
2022/09/18 00:55:10;;;;;;;0.70;0.40;;;16.10;99.90;;;16.19;64.48;93892.59;6177129;23;20968;-57
2022/09/18 00:57:40;;;;;;;0.80;0.50;;;16.10;99.90;;;16.09;64.41;93895.59;6177380;23;20401;-56
2022/09/18 01:00:13;;;;;;;0.70;0.43;;;15.90;99.90;;;16.00;64.20;93899.41;6177524;23;20429;-55
2022/09/18 01:02:41;;;;;;;4.60;0.60;;;15.80;99.90;;;15.94;64.33;93924.91;6177220;23;20474;-56
2022/09/18 01:05:09;;;;;;;3.57;0.50;;;15.80;99.90;;;15.85;64.52;93934.03;6177393;23;20418;-57
2022/09/18 01:07:53;;;;;;;0.90;0.50;;;15.70;99.90;;;15.75;64.74;93925.56;6177303;23;20409;-56
2022/09/18 01:10:32;;;;;;;0.90;0.50;;;15.60;99.90;;;15.65;65.14;93938.38;6177074;23;20427;-57
2022/09/18 01:13:00;;;;;;;0.80;0.40;;;15.50;99.90;;;15.55;65.38;93951.97;6177268;23;20487;-55
2022/09/18 01:15:36;;;;;;;3.57;0.70;;;15.50;99.90;;;15.42;64.72;93982.63;6176723;23;20425;-55
2022/09/18 01:18:08;;;;;;;0.70;0.40;;;15.30;99.80;;;15.27;64.54;93959.91;6177108;23;20840;-56
2022/09/18 01:20:55;;;;;;;0.70;0.40;;;15.20;99.60;;;15.13;64.90;93990.75;6177608;23;21000;-55
2022/09/18 01:23:42;;;;;;;0.70;0.40;;;15.00;99.90;;;15.00;64.97;93991.44;6176682;23;20405;-54
2022/09/18 01:26:21;;;;;;;0.70;0.40;;;14.90;99.90;;;14.87;64.79;93986.81;6176717;23;20915;-56
2022/09/18 01:28:53;;;;;;;0.70;0.40;;;14.80;99.80;;;14.78;65.17;94017.06;6176510;23;20413;-54
2022/09/18 01:31:25;;;;;;;0.97;0.40;;;14.70;99.90;;;14.70;65.60;94010.91;6176797;23;20413;-56
2022/09/18 01:33:55;;;;;;;1.47;0.40;;;14.60;99.90;;;14.63;65.65;94003.88;6177055;23;20492;-54
2022/09/18 01:36:22;;;;;;;0.80;0.50;;;14.50;99.90;;;14.53;65.73;94004.13;6176680;23;20426;-56
2022/09/18 01:38:51;;;;;;;0.70;0.40;;;14.40;99.90;;;14.44;65.71;94008.72;6177492;23;20736;-56
2022/09/18 01:41:22;;;;;;;1.10;0.40;;;14.40;99.90;;;14.37;65.68;94014.94;6176817;23;20887;-55
2022/09/18 01:43:55;;;;;;;3.13;0.50;;;14.30;99.90;;;14.27;66.01;94033.75;6177064;23;20430;-54
2022/09/18 01:46:22;;;;;;;0.80;0.40;;;14.20;99.90;;;14.16;66.28;94056.97;6177017;23;20557;-57
2022/09/18 01:48:54;;;;;;;0.70;0.40;;;14.10;99.90;;;14.10;66.26;94056.91;6177189;23;20433;-55
2022/09/18 01:51:24;;;;;;;0.70;0.40;;;14.00;99.90;;;14.05;66.66;94062.72;6176815;23;20402;-56
2022/09/18 01:53:54;;;;;;;0.70;0.40;;;14.00;99.90;;;14.01;66.34;94073.84;6176653;23;21108;-56
2022/09/18 01:56:24;;;;;;;0.80;0.50;;;13.90;99.90;;;13.96;66.29;94088.41;6176750;23;20398;-53
2022/09/18 01:58:53;;;;;;;2.83;0.40;;;13.90;99.90;;;13.89;66.27;94086.66;6176691;23;20426;-56
2022/09/18 02:01:21;;;;;;;0.70;0.40;;;13.80;99.90;;;13.83;66.07;94093.50;6176832;23;20904;-55
2022/09/18 02:03:51;;;;;;;1.00;0.60;;;13.70;99.90;;;13.77;66.19;94116.19;6177246;23;20425;-57
2022/09/18 02:06:21;;;;;;;0.70;0.50;;;13.70;99.90;;;13.75;65.55;94122.63;6176189;23;20401;-57
2022/09/18 02:08:50;;;;;;;0.70;0.40;;;13.60;99.90;;;13.72;66.25;94125.63;6176601;23;20433;-52
2022/09/18 02:11:18;;;;;;;1.10;0.40;;;13.60;99.90;;;13.69;66.07;94128.63;6176686;23;20436;-56
2022/09/18 02:13:48;;;;;;;2.70;0.40;;;13.60;99.90;;;13.65;65.68;94138.75;6176494;23;20453;-55
2022/09/18 02:16:22;;;;;;;0.70;0.43;;;13.50;99.90;;;13.61;65.39;94148.00;6175839;23;20409;-56
2022/09/18 02:18:52;;;;;;;0.80;0.40;;;13.50;99.90;;;13.57;65.72;94162.56;6176364;23;20462;-56
2022/09/18 02:21:22;;;;;;;0.70;0.40;;;13.50;99.90;;;13.57;65.55;94173.13;6176713;23;20398;-56
2022/09/18 02:23:49;;;;;;;0.90;0.40;;;13.40;99.90;;;13.55;65.27;94175.94;6176227;23;20421;-55
2022/09/18 02:26:16;;;;;;;0.70;0.50;;;13.40;99.90;;;13.55;65.75;94175.13;6176683;23;20476;-56
2022/09/18 02:28:44;;;;;;;0.70;0.40;;;13.40;99.90;;;13.53;65.50;94185.88;6176408;23;20574;-54
2022/09/18 02:31:11;;;;;;;2.27;0.43;;;13.40;99.90;;;13.51;65.57;94193.16;6176436;23;20416;-56
2022/09/18 02:33:40;;;;;;;0.70;0.43;;;13.40;99.90;;;13.49;65.39;94210.19;6176372;23;20504;-56
2022/09/18 02:36:47;;;;;;;1.10;0.40;;;13.40;99.90;;;13.47;65.18;94231.50;6176231;23;20397;-57
2022/09/18 02:39:29;;;;;;;0.70;0.50;;;13.40;99.90;;;13.43;64.70;94230.19;6175934;23;20418;-55
2022/09/18 02:42:02;;;;;;;0.70;0.50;;;13.30;99.70;;;13.38;64.87;94248.38;6176545;23;20389;-55
2022/09/18 02:44:33;;;;;;;0.70;0.50;;;13.30;99.60;;;13.36;64.70;94267.03;6176418;23;20440;-57
2022/09/18 02:47:04;;;;;;;0.90;0.60;;;13.30;99.70;;;13.36;64.79;94274.16;6176260;23;20397;-58
2022/09/18 02:49:40;;;;;;;1.03;0.50;;;13.30;99.60;;;13.32;63.35;94268.34;6176375;23;20417;-55
2022/09/18 02:52:09;;;;;;;1.47;0.70;;;13.20;98.70;;;13.25;63.46;94265.56;6176153;23;20401;-55
2022/09/18 02:54:41;;;;;;;0.70;0.50;;;13.20;98.60;;;13.21;63.72;94277.44;6176237;23;20457;-56
2022/09/18 02:57:10;;;;;;;1.63;0.63;;;13.10;98.60;;;13.18;63.92;94285.72;6176333;23;20532;-54
2022/09/18 02:59:39;;;;;;;0.87;0.80;;;13.10;99.00;;;13.16;63.23;94285.06;6176493;23;20456;-56
2022/09/18 03:02:06;;;;;;;0.87;0.70;;;13.10;98.60;;;13.15;61.93;94279.97;6176538;23;20417;-55
2022/09/18 03:04:35;;;;;;;0.73;0.53;;;13.00;97.80;;;13.13;62.95;94279.31;6176430;23;20430;-57
2022/09/18 03:07:02;;;;;;;0.80;0.60;;;13.00;98.40;;;13.09;62.93;94279.66;6176288;23;20397;-56
2022/09/18 03:09:31;;;;;;;0.80;0.80;;;13.00;98.30;;;13.05;62.58;94280.16;6176606;23;20528;-54
2022/09/18 03:11:58;;;;;;;0.97;0.87;;;13.00;98.00;;;13.02;61.95;94296.34;6175953;23;20406;-55
2022/09/18 03:14:26;;;;;;;0.80;0.80;;;12.90;97.70;;;12.97;62.62;94303.97;6175816;23;20453;-55
2022/09/18 03:16:53;;;;;;;1.80;0.80;;;12.90;98.00;;;12.95;63.40;94312.03;6176983;23;20406;-53
2022/09/18 03:19:20;;;;;;;0.80;0.70;;;12.90;98.40;;;12.94;62.72;94318.31;6176520;23;20429;-57
2022/09/18 03:21:51;;;;;;;0.80;0.63;;;12.80;98.20;;;12.95;62.91;94327.03;6176448;23;20402;-56
2022/09/18 03:24:19;;;;;;;0.80;0.67;;;12.80;98.20;;;12.93;62.68;94321.09;6176065;23;20496;-57
2022/09/18 03:26:46;;;;;;;0.90;0.77;;;12.90;98.30;;;12.93;61.79;94329.03;6175901;23;20476;-55
2022/09/18 03:29:14;;;;;;;1.00;0.90;;;12.80;97.60;;;12.89;62.64;94329.38;6176235;23;20426;-55
2022/09/18 03:31:41;;;;;;;2.40;0.73;;;12.80;98.00;;;12.88;63.24;94332.97;6176039;23;20410;-58
2022/09/18 03:34:08;;;;;;;0.90;0.70;;;12.80;98.10;;;12.89;62.32;94332.00;6175268;23;20453;-55
2022/09/18 03:36:35;;;;;;;0.70;0.60;;;12.80;97.90;;;12.88;62.32;94335.63;6176113;23;20619;-56
2022/09/18 03:39:04;;;;;;;0.90;0.80;;;12.80;97.70;;;12.87;62.17;94331.34;6175883;23;20425;-56
2022/09/18 03:41:32;;;;;;;0.80;0.80;;;12.80;97.90;;;12.86;62.59;94340.25;6176453;23;20431;-55
2022/09/18 03:43:59;;;;;;;3.67;0.70;;;12.70;97.90;;;12.85;62.51;94343.88;6175617;23;20456;-56
2022/09/18 03:46:26;;;;;;;1.03;0.63;;;12.80;98.10;;;12.85;62.63;94357.06;6176479;23;20406;-54
2022/09/18 03:48:54;;;;;;;2.10;1.30;;;12.70;97.90;;;12.84;62.63;94357.22;6175986;23;20953;-56
2022/09/18 03:51:21;;;;;;;0.80;0.70;;;12.80;98.00;;;12.86;62.03;94361.38;6177268;23;20405;-56
2022/09/18 03:53:49;;;;;;;1.00;0.70;;;12.80;97.60;;;12.85;62.69;94370.25;6177744;23;20525;-58
2022/09/18 03:56:18;;;;;;;0.90;0.90;;;12.70;97.90;;;12.85;62.88;94370.25;6178121;23;20488;-55
2022/09/18 03:58:45;;;;;;;0.80;0.70;;;12.70;98.10;;;12.86;62.40;94377.19;6177736;23;20432;-56
2022/09/18 04:01:13;;;;;;;0.90;0.70;;;12.70;97.90;;;12.85;62.12;94374.72;6177711;23;20436;-54
2022/09/18 04:03:40;;;;;;;0.90;0.70;;;12.70;97.70;;;12.83;62.45;94374.91;6177872;23;20520;-56
2022/09/18 04:06:08;;;;;;;6.20;1.60;;;12.80;98.00;;;12.81;62.01;94379.53;6178097;23;20409;-54
2022/09/18 04:08:36;;;;;;;0.90;0.80;;;12.70;97.40;;;12.78;62.52;94385.13;6178193;23;20424;-53
2022/09/18 04:11:04;;;;;;;4.90;1.30;;;12.70;97.90;;;12.76;62.66;94379.19;6177636;23;20409;-55
2022/09/18 04:13:33;;;;;;;0.87;0.87;;;12.70;97.90;;;12.76;61.68;94388.91;6177304;23;20506;-56
2022/09/18 04:16:00;;;;;;;1.30;1.20;;;12.70;97.60;;;12.76;61.97;94391.56;6177461;23;20408;-55
2022/09/18 04:18:27;;;;;;;1.07;0.97;;;12.60;97.40;;;12.72;61.93;94409.53;6177434;23;20424;-56
2022/09/18 04:20:55;;;;;;;1.03;0.93;;;12.60;97.40;;;12.66;62.06;94421.56;6178028;23;20673;-56
2022/09/18 04:23:22;;;;;;;1.23;1.13;;;12.60;97.50;;;12.63;62.75;94429.00;6176902;23;20429;-55
2022/09/18 04:25:50;;;;;;;1.07;1.00;;;12.50;97.80;;;12.63;62.80;94427.16;6177935;23;20408;-56
2022/09/18 04:28:17;;;;;;;1.40;1.30;;;12.50;98.00;;;12.64;62.85;94420.06;6177638;23;20405;-56
2022/09/18 04:30:46;;;;;;;1.00;0.90;;;12.60;98.40;;;12.64;63.44;94425.34;6177645;23;20617;-56
2022/09/18 04:33:14;;;;;;;1.43;1.03;;;12.50;98.30;;;12.63;62.94;94429.00;6175598;23;20445;-56
2022/09/18 04:35:41;;;;;;;1.00;0.90;;;12.50;98.30;;;12.61;63.33;94434.44;6177917;23;20437;-58
2022/09/18 04:38:11;;;;;;;1.60;1.10;;;12.50;98.40;;;12.61;63.45;94431.78;6177253;23;20433;-56
2022/09/18 04:40:38;;;;;;;3.33;1.93;;;12.50;98.70;;;12.64;63.78;94435.91;6177723;23;20421;-55
2022/09/18 04:43:09;;;;;;;1.30;1.20;;;12.50;98.70;;;12.65;63.88;94432.28;6176790;23;20421;-55
2022/09/18 04:45:36;;;;;;;0.90;0.77;;;12.50;98.60;;;12.66;63.78;94433.94;6177018;23;20561;-54
2022/09/18 04:48:05;;;;;;;1.13;0.97;;;12.60;98.80;;;12.66;63.87;94455.06;6177571;23;20401;-55
2022/09/18 04:50:32;;;;;;;1.13;1.03;;;12.50;98.80;;;12.66;63.76;94455.06;6177328;23;20491;-55
2022/09/18 04:52:59;;;;;;;1.30;0.90;;;12.60;98.70;;;12.65;63.62;94463.94;6177497;23;20429;-56
2022/09/18 04:55:26;;;;;;;1.13;1.03;;;12.50;98.60;;;12.62;63.34;94461.63;6177441;23;20500;-55
2022/09/18 04:57:54;;;;;;;1.10;0.97;;;12.50;98.80;;;12.61;63.99;94484.56;6177258;23;20401;-56
2022/09/18 05:00:21;;;;;;;1.00;0.97;;;12.50;99.00;;;12.63;64.41;94487.84;6176934;23;20426;-56
2022/09/18 05:02:48;;;;;;;2.00;1.27;;;12.50;99.10;;;12.67;64.33;94493.63;6176566;23;20442;-55
2022/09/18 05:05:17;;;;;;;1.10;1.00;;;12.50;99.20;;;12.69;64.30;94483.75;6177246;23;20433;-55
2022/09/18 05:07:44;;;;;;;1.93;0.90;;;12.60;99.10;;;12.67;64.21;94499.75;6177329;23;20789;-55
2022/09/18 05:10:11;;;;;;;9.10;1.10;;;12.60;99.10;;;12.69;64.12;94507.50;6176601;23;20480;-54
2022/09/18 05:12:40;;;;;;;1.80;1.47;;;12.60;99.10;;;12.70;63.87;94503.84;6176913;23;20409;-54
2022/09/18 05:15:08;;;;;;;4.33;1.47;;;12.60;98.90;;;12.72;64.00;94521.19;6176552;23;20870;-56
2022/09/18 05:17:38;;;;;;;1.47;1.37;;;12.60;98.90;;;12.73;64.01;94530.75;6177622;23;20408;-56
2022/09/18 05:20:07;;;;;;;1.73;1.40;;;12.60;98.80;;;12.72;63.70;94528.28;6177745;23;20772;-57
2022/09/18 05:22:36;;;;;;;1.43;1.33;;;12.60;98.80;;;12.77;63.37;94527.81;6177851;23;20812;-56
2022/09/18 05:25:03;;;;;;;1.53;1.43;;;12.70;98.80;;;12.77;63.89;94531.25;6176776;23;20421;-55
2022/09/18 05:27:30;;;;;;;1.50;1.40;;;12.70;98.70;;;12.80;63.29;94533.56;6176894;23;20451;-58
2022/09/18 05:29:58;;;;;;;1.70;1.60;;;12.70;98.60;;;12.83;63.35;94533.25;6176812;23;20436;-56
2022/09/18 05:32:25;;;;;;;2.00;1.73;;;12.70;98.40;;;12.86;63.64;94527.66;6175444;23;20520;-58
2022/09/18 05:34:52;;;;;;;3.47;1.77;;;12.80;98.50;;;12.90;63.37;94515.78;6176734;23;20827;-56
2022/09/18 05:37:19;;;;;;;1.77;1.67;;;12.80;98.50;;;12.96;63.06;94531.94;6176810;23;20405;-57
2022/09/18 05:39:48;;;;;;;1.67;1.57;;;12.80;98.50;;;13.02;63.37;94555.06;6176819;23;20492;-56
2022/09/18 05:42:15;;;;;;;1.77;1.67;;;12.90;98.50;;;13.09;63.17;94548.16;6176580;23;20738;-56
2022/09/18 05:44:42;;;;;;;1.53;1.43;;;12.90;98.50;;;13.19;63.65;94556.72;6176766;23;21016;-56
2022/09/18 05:47:10;;;;;;;2.90;1.83;;;13.00;99.00;;;13.29;62.87;94551.28;6177218;23;20925;-55
2022/09/18 05:49:37;;;;;;;1.67;1.57;;;13.10;98.70;;;13.35;62.45;94541.91;6176416;23;20426;-54
2022/09/18 05:52:04;;;;;;;1.40;1.30;;;13.20;98.10;;;13.38;62.35;94544.22;6176493;23;20468;-55
2022/09/18 05:54:35;;;;;;;2.30;1.50;;;13.20;97.90;;;13.41;62.71;94544.72;6176105;23;20779;-56
2022/09/18 05:57:03;;;;;;;1.90;1.70;;;13.20;98.20;;;13.48;62.32;94550.19;6176316;23;20396;-56
2022/09/18 05:59:31;;;;;;;1.47;1.37;;;13.30;97.80;;;13.51;61.65;94552.50;6176262;23;20429;-55
2022/09/18 06:01:58;;;;;;;1.27;1.17;;;13.40;97.80;;;13.54;61.41;94553.97;6176327;23;20989;-61
2022/09/18 06:04:25;;;;;;;1.33;1.20;;;13.40;97.30;;;13.55;61.50;94550.34;6176062;23;21036;-57
2022/09/18 06:06:52;;;;;;;1.10;1.00;;;13.40;97.50;;;13.56;61.36;94567.84;6175349;23;20393;-56
2022/09/18 06:09:20;;;;;;;1.30;1.20;;;13.40;97.40;;;13.58;61.69;94563.22;6175609;23;20433;-57
2022/09/18 06:11:48;;;;;;;1.33;1.23;;;13.40;97.40;;;13.64;61.55;94554.63;6176175;23;20416;-56
2022/09/18 06:14:16;;;;;;;1.57;1.30;;;13.50;97.60;;;13.74;61.71;94562.38;6175721;23;20555;-57
2022/09/18 06:16:44;;;;;;;1.43;1.33;;;13.50;97.50;;;13.82;60.13;94570.31;6175768;23;20413;-58
2022/09/18 06:19:11;;;;;;;1.77;1.00;;;13.60;96.50;;;13.85;60.71;94583.19;6175946;23;20732;-57
2022/09/18 06:21:38;;;;;;;1.00;0.70;;;13.70;97.00;;;13.89;60.01;94579.19;6175478;23;20409;-57
2022/09/18 06:24:06;;;;;;;0.83;0.80;;;13.70;96.30;;;13.92;60.22;94589.44;6175132;23;20954;-56
2022/09/18 06:26:33;;;;;;;0.90;0.80;;;13.80;96.30;;;13.94;59.64;94590.13;6174860;23;20442;-56
2022/09/18 06:29:01;;;;;;;3.47;0.87;;;13.80;95.80;;;13.95;59.79;94602.34;6175452;23;20445;-53
2022/09/18 06:31:29;;;;;;;1.07;0.97;;;13.80;96.30;;;13.98;59.98;94606.47;6173467;23;20796;-54
2022/09/18 06:33:57;;;;;;;0.80;0.77;;;13.80;96.30;;;13.99;59.08;94610.78;6172569;23;20453;-57
2022/09/18 06:36:24;;;;;;;6.77;1.27;;;13.80;95.50;;;13.97;59.16;94616.22;6174416;23;20394;-56
2022/09/18 06:38:51;;;;;;;0.80;0.70;;;13.80;95.70;;;13.97;59.43;94613.59;6173744;23;20418;-56
2022/09/18 06:41:19;;;;;;;1.03;0.93;;;13.80;95.70;;;13.98;59.25;94620.50;6174646;23;20405;-56
2022/09/18 06:43:49;;;;;;;1.13;0.93;;;13.80;95.70;;;13.98;59.28;94615.22;6175551;23;20421;-56
2022/09/18 06:46:16;;;;;;;4.10;1.10;;;13.80;95.70;;;14.04;59.38;94619.03;6175450;23;20402;-58
2022/09/18 06:48:44;;;;;;;1.00;0.80;;;13.90;95.70;;;14.10;59.52;94615.72;6175166;23;20962;-57
2022/09/18 06:51:12;;;;;;;1.07;0.90;;;13.90;95.80;;;14.18;59.38;94620.16;6175734;23;20460;-56
2022/09/18 06:53:39;;;;;;;1.07;0.97;;;14.00;95.70;;;14.27;59.32;94628.91;6176451;23;20408;-56
2022/09/18 06:56:06;;;;;;;2.23;0.77;;;14.10;95.70;;;14.32;58.63;94621.28;6176398;23;20749;-55
2022/09/18 06:58:34;;;;;;;1.23;1.13;;;14.10;95.10;;;14.35;58.53;94628.88;6173522;23;20409;-55
2022/09/18 07:01:01;;;;;;;1.60;0.77;;;14.20;95.00;;;14.38;58.06;94625.09;6175861;23;20417;-56
2022/09/18 07:03:29;;;;;;;1.00;0.90;;;14.20;94.60;;;14.42;58.06;94623.75;6174840;23;20417;-55
2022/09/18 07:05:57;;;;;;;5.20;1.77;;;14.20;94.80;;;14.48;57.87;94620.41;6174356;23;20409;-57
2022/09/18 07:08:24;;;;;;;2.10;0.80;;;14.30;94.70;;;14.47;57.18;94624.88;6175516;23;20402;-56
2022/09/18 07:10:52;;;;;;;1.10;1.00;;;14.30;93.90;;;14.44;56.96;94627.06;6175296;23;20452;-53
2022/09/18 07:13:19;;;;;;;2.60;1.10;;;14.30;93.90;;;14.41;57.78;94640.63;6174841;23;20405;-55
2022/09/18 07:15:47;;;;;;;1.40;0.90;;;14.30;94.30;;;14.42;57.49;94634.31;6175056;23;20448;-54
2022/09/18 07:18:14;;;;;;;1.83;0.90;;;14.20;93.80;;;14.42;57.02;94642.25;6174999;23;20458;-52
2022/09/18 07:20:42;;;;;;;2.60;1.00;;;14.30;93.80;;;14.42;56.75;94644.91;6175582;23;20425;-55
2022/09/18 07:23:10;;;;;;;1.27;1.00;;;14.30;93.50;;;14.41;56.95;94636.16;6174605;23;20457;-55
2022/09/18 07:25:38;;;;;;;5.30;2.03;;;14.30;93.70;;;14.40;56.87;94639.78;6175260;23;20889;-52
2022/09/18 07:28:06;;;;;;;5.40;1.30;;;14.20;93.60;;;14.40;56.62;94641.63;6175690;23;20522;-54
2022/09/18 07:30:34;;;;;;;0.80;0.70;;;14.20;93.30;;;14.35;56.19;94647.41;6176288;23;20946;-55
2022/09/18 07:33:02;;;;;;;0.97;0.87;;;14.20;92.80;;;14.29;56.38;94659.47;6175889;23;20420;-52
2022/09/18 07:35:29;;;;;;;12.63;0.97;;;14.20;93.00;;;14.26;56.69;94670.41;6176576;23;20549;-57
2022/09/18 07:37:58;;;;;;;1.00;0.90;;;14.10;93.40;;;14.23;56.68;94664.63;6176298;23;20405;-54
2022/09/18 07:40:27;;;;;;;1.10;1.00;;;14.10;93.00;;;14.18;56.88;94675.72;6176906;23;20533;-54
2022/09/18 07:42:59;;;;;;;0.87;0.73;;;14.00;93.40;;;14.15;56.96;94676.03;6175741;23;20401;-54
2022/09/18 07:45:26;;;;;;;1.10;1.00;;;14.00;93.40;;;14.14;56.72;94677.03;6176321;23;20429;-56
2022/09/18 07:47:53;;;;;;;1.60;0.90;;;14.00;93.20;;;14.12;57.33;94671.91;6177174;23;20456;-54
2022/09/18 07:50:21;;;;;;;1.57;1.00;;;14.00;93.70;;;14.15;57.83;94678.69;6176605;23;20512;-56
2022/09/18 07:52:50;;;;;;;1.00;0.90;;;14.00;94.10;;;14.19;57.80;94680.00;6176629;23;20412;-57
2022/09/18 07:55:19;;;;;;;1.20;1.10;;;14.00;94.10;;;14.19;57.71;94680.00;6175105;23;20452;-53
2022/09/18 07:57:48;;;;;;;2.03;1.17;;;14.00;94.00;;;14.15;58.08;94662.81;6175308;23;20604;-53
2022/09/18 08:00:16;;;;;;;4.73;1.23;;;14.10;94.30;;;14.24;58.09;94674.22;6175796;23;20435;-53
2022/09/18 08:02:43;;;;;;;2.70;1.00;;;14.10;94.30;;;14.28;57.92;94678.16;6167177;23;20405;-54
2022/09/18 08:05:12;;;;;;;3.10;1.10;;;14.10;94.10;;;14.35;58.23;94673.88;6168657;23;20437;-55
2022/09/18 08:07:40;;;;;;;0.90;0.80;;;14.20;94.40;;;14.48;58.01;94673.34;6173074;23;20437;-55
2022/09/18 08:10:09;;;;;;;1.23;0.90;;;14.30;94.40;;;14.70;58.06;94679.75;6173394;23;20421;-56
2022/09/18 08:12:37;;;;;;;1.03;0.93;;;14.50;94.50;;;14.92;57.26;94686.16;6171183;23;20558;-56
2022/09/18 08:15:07;;;;;;;1.10;1.00;;;14.70;93.90;;;15.14;56.95;94697.00;6174709;23;20480;-53
2022/09/18 08:17:34;;;;;;;1.40;1.30;;;14.90;93.90;;;15.31;56.28;94685.31;6171667;23;20433;-55
2022/09/18 08:20:03;;;;;;;1.67;1.00;;;15.10;93.30;;;15.51;56.83;94682.25;6174284;23;20974;-56
2022/09/18 08:22:30;;;;;;;1.00;0.90;;;15.30;93.70;;;15.87;56.89;94682.53;6172676;23;20531;-54
2022/09/18 08:24:57;;;;;;;1.50;1.40;;;15.60;93.90;;;16.30;56.34;94677.53;6173167;23;20834;-55
2022/09/18 08:27:25;;;;;;;1.50;1.40;;;16.00;93.80;;;16.66;54.95;94673.38;6172663;23;20434;-55
2022/09/18 08:29:52;;;;;;;6.10;1.20;;;16.40;92.80;;;16.88;54.86;94684.94;6173103;23;20885;-54
2022/09/18 08:32:21;;;;;;;1.40;1.30;;;16.70;92.50;;;16.99;53.75;94684.50;6170580;23;20464;-57
2022/09/18 08:34:48;;;;;;;1.20;1.10;;;16.80;91.60;;;17.09;54.15;94688.72;6174081;23;20453;-55
2022/09/18 08:37:15;;;;;;;1.40;1.30;;;16.90;91.40;;;17.15;52.23;94688.78;6172265;23;20437;-54
2022/09/18 08:39:42;;;;;;;3.00;1.70;;;17.00;90.30;;;17.11;53.60;94692.00;6174361;23;20437;-54
2022/09/18 08:42:19;;;;;;;1.33;1.23;;;17.00;90.90;;;17.10;53.38;94695.66;6171066;23;20437;-55
2022/09/18 08:44:48;;;;;;;3.83;1.20;;;16.90;90.70;;;17.15;53.99;94694.09;6174181;23;20444;-54
2022/09/18 08:47:19;;;;;;;0.93;0.83;;;17.00;91.10;;;17.31;53.49;94700.22;6170058;23;20430;-56
2022/09/18 08:49:49;;;;;;;1.00;0.90;;;17.10;91.40;;;17.56;54.11;94701.53;6172635;23;21021;-55
2022/09/18 08:52:18;;;;;;;1.00;0.87;;;17.30;91.60;;;17.86;53.10;94716.59;6175690;23;20394;-56
2022/09/18 08:54:51;;;;;;;2.27;0.80;;;17.50;90.90;;;18.02;52.31;94720.91;6175527;23;20449;-55
2022/09/18 08:57:22;;;;;;;0.90;0.70;;;17.70;90.20;;;18.14;52.22;94716.72;6174400;23;20413;-55
2022/09/18 08:59:52;;;;;;;1.10;0.93;;;17.80;89.90;;;18.17;51.01;94715.50;6173753;23;20488;-54
2022/09/18 09:02:39;;;;;;;2.03;1.10;;;17.90;87.70;;;18.22;50.19;94711.25;6175065;23;20405;-55
2022/09/18 09:05:11;;;;;;;0.90;0.73;;;18.00;87.20;;;18.33;50.48;94717.09;6176294;23;20428;-57
2022/09/18 09:08:19;;;;;;;6.67;2.90;;;18.10;86.20;;;18.61;49.56;94720.59;6175833;23;20941;-56
2022/09/18 09:10:53;;;;;;;10.23;1.37;;;18.30;84.50;;;18.92;49.54;94714.06;6176172;23;20429;-56
2022/09/18 09:13:55;;;;;;;2.30;1.40;;;18.50;84.30;;;19.17;48.13;94719.75;6175728;23;20433;-56
2022/09/18 09:16:28;;;;;;;0.80;0.70;;;18.80;84.60;;;19.29;48.06;94725.34;6175940;23;20459;-56
2022/09/18 09:18:59;;;;;;;2.50;1.03;;;18.90;81.00;;;19.28;48.50;94726.38;6176828;23;20430;-57
2022/09/18 09:21:48;;;;;;;2.00;1.17;;;19.00;81.40;;;19.22;47.39;94729.81;6177090;23;20738;-55
2022/09/18 09:24:30;;;;;;;1.00;0.90;;;19.00;79.70;;;19.09;48.29;94732.44;6176903;23;20425;-56
2022/09/18 09:26:58;;;;;;;1.40;1.30;;;18.90;80.40;;;18.90;47.86;94733.94;6176327;23;20844;-56
2022/09/18 09:29:28;;;;;;;5.10;1.57;;;18.70;78.80;;;18.71;48.62;94736.22;6176415;23;20538;-61
2022/09/18 09:31:58;;;;;;;7.80;2.50;;;18.50;79.90;;;18.56;49.34;94730.16;6176149;23;20448;-55
2022/09/18 09:34:27;;;;;;;2.93;2.10;;;18.40;79.90;;;18.44;49.06;94743.19;6176191;23;20472;-58
2022/09/18 09:36:57;;;;;;;2.33;2.23;;;18.30;80.50;;;18.40;49.78;94747.25;6176314;23;20805;-56
2022/09/18 09:39:27;;;;;;;2.30;2.20;;;18.20;80.50;;;18.41;48.85;94746.25;6175872;23;20476;-57
2022/09/18 09:41:56;;;;;;;2.03;1.90;;;18.20;79.90;;;18.43;48.74;94752.19;6175835;23;20389;-58
2022/09/18 09:44:33;;;;;;;4.70;2.97;;;18.20;79.90;;;18.48;49.14;94762.28;6175431;23;20425;-55
2022/09/18 09:47:06;;;;;;;2.20;2.00;;;18.20;80.30;;;18.50;48.95;94765.56;6176062;23;20421;-57
2022/09/18 09:49:37;;;;;;;9.80;6.87;;;18.20;79.50;;;18.43;48.71;94770.84;6175815;23;20421;-56
2022/09/18 09:52:10;;;;;;;4.03;2.30;;;18.20;78.80;;;18.32;48.84;94779.34;6175687;23;20401;-56
2022/09/18 09:54:37;;;;;;;2.53;2.10;;;18.10;79.10;;;18.19;49.19;94770.19;6175955;23;20455;-56
2022/09/18 09:57:16;;;;;;;1.90;1.80;;;18.00;78.70;;;18.08;48.62;94765.38;6176353;23;20483;-56
2022/09/18 09:59:48;;;;;;;4.57;2.20;;;17.90;78.20;;;17.98;49.04;94780.81;6176546;23;20840;-55
2022/09/18 10:02:30;;;;;;;3.20;2.50;;;17.80;78.60;;;17.87;48.94;94774.94;6176363;23;20394;-57
2022/09/18 10:05:00;;;;;;;2.10;2.00;;;17.70;79.00;;;17.81;49.23;94773.03;6176517;23;20539;-56
2022/09/18 10:07:32;;;;;;;3.30;3.10;;;17.60;79.40;;;17.78;49.27;94773.41;6176409;23;20429;-55
2022/09/18 10:10:02;;;;;;;2.90;2.50;;;17.50;79.50;;;17.72;49.56;94772.31;6175821;23;20989;-54
2022/09/18 10:12:34;;;;;;;4.67;4.20;;;17.50;79.50;;;17.70;49.65;94778.84;6176837;23;20401;-56
2022/09/18 10:15:06;;;;;;;2.90;2.07;;;17.50;79.30;;;17.65;49.82;94778.56;6176499;23;20463;-57
2022/09/18 10:17:35;;;;;;;7.83;3.00;;;17.40;79.20;;;17.58;49.58;94788.31;6176610;23;20401;-57
2022/09/18 10:20:04;;;;;;;2.17;2.00;;;17.40;79.50;;;17.53;49.30;94783.53;6176402;23;20842;-56
2022/09/18 10:22:33;;;;;;;3.20;2.60;;;17.30;79.10;;;17.49;49.71;94769.78;6176432;23;20476;-55
2022/09/18 10:25:04;;;;;;;2.47;2.37;;;17.30;79.30;;;17.46;49.91;94790.59;6176357;23;20444;-56
2022/09/18 10:27:31;;;;;;;2.30;2.10;;;17.20;79.40;;;17.45;49.49;94795.09;6176168;23;20480;-56
2022/09/18 10:29:59;;;;;;;2.07;1.97;;;17.20;79.50;;;17.44;49.76;94796.09;6175596;23;20966;-57